createdAt,value
2017-09-19T00:00:41.944Z,9.8
2017-09-19T00:01:43.669Z,9.7
2017-09-19T00:02:46.887Z,11.7
2017-09-19T00:03:49.430Z,9.3
2017-09-19T00:04:52.976Z,10.9
2017-09-19T00:05:55.568Z,10.6
2017-09-19T00:06:58.466Z,10.3
2017-09-19T00:08:01.132Z,9.2
2017-09-19T00:09:03.447Z,11.5
2017-09-19T00:10:08.948Z,9.1
2017-09-19T00:11:12.580Z,11.6
2017-09-19T00:12:14.288Z,8.5
2017-09-19T00:13:16.011Z,9.0
2017-09-19T00:14:19.443Z,9.3
2017-09-19T00:15:22.626Z,8.6
2017-09-19T00:16:25.739Z,12.8
2017-09-19T00:17:29.038Z,8.2
2017-09-19T00:18:32.070Z,7.8
2017-09-19T00:19:33.842Z,9.0
2017-09-19T00:20:39.019Z,10.0
2017-09-19T00:21:43.539Z,9.8
2017-09-19T00:22:47.048Z,11.8
2017-09-19T00:23:48.761Z,8.6
2017-09-19T00:24:50.464Z,7.2
2017-09-19T00:25:53.927Z,8.6
2017-09-19T00:26:57.103Z,7.2
2017-09-19T00:27:59.471Z,7.7
2017-09-19T00:29:02.511Z,6.9
2017-09-19T00:30:05.954Z,7.7
2017-09-19T00:31:09.188Z,7.5
2017-09-19T00:32:12.902Z,8.8
2017-09-19T00:33:15.270Z,8.4
2017-09-19T00:34:18.455Z,6.4
2017-09-19T00:35:20.880Z,8.0
2017-09-19T00:36:23.450Z,7.5
2017-09-19T00:37:29.032Z,7.5
2017-09-19T00:38:31.890Z,9.4
2017-09-19T00:39:33.502Z,7.8
2017-09-19T00:40:35.813Z,7.7
2017-09-19T00:41:38.671Z,7.4
2017-09-19T00:42:41.128Z,7.9
2017-09-19T00:43:43.303Z,7.9
2017-09-19T00:44:45.034Z,5.9
2017-09-19T00:45:48.385Z,7.6
2017-09-19T00:46:50.886Z,7.2
2017-09-19T00:47:52.393Z,6.3
2017-09-19T00:48:55.929Z,5.8
2017-09-19T00:49:59.628Z,5.8
2017-09-19T00:51:05.020Z,6.6
2017-09-19T00:52:06.714Z,7.3
2017-09-19T00:53:10.414Z,6.3
2017-09-19T00:54:13.563Z,7.8
2017-09-19T00:55:16.753Z,7.1
2017-09-19T00:56:19.335Z,6.2
2017-09-19T00:57:21.834Z,6.4
2017-09-19T00:58:25.436Z,7.1
2017-09-19T00:59:28.772Z,9.2
2017-09-19T01:00:31.770Z,9.3
2017-09-19T01:01:35.597Z,9.1
2017-09-19T01:02:37.866Z,7.9
2017-09-19T01:03:41.275Z,7.4
2017-09-19T01:04:43.658Z,7.9
2017-09-19T01:05:45.395Z,9.7
2017-09-19T01:06:47.714Z,10.2
2017-09-19T01:07:50.800Z,11.3
2017-09-19T01:08:52.680Z,11.5
2017-09-19T01:09:54.979Z,9.1
2017-09-19T01:10:58.049Z,7.8
2017-09-19T01:12:00.581Z,7.8
2017-09-19T01:13:03.292Z,6.9
2017-09-19T01:14:05.719Z,8.0
2017-09-19T01:15:08.885Z,7.1
2017-09-19T01:16:09.748Z,6.6
2017-09-19T01:17:13.516Z,8.0
2017-09-19T01:18:16.222Z,8.7
2017-09-19T01:19:20.289Z,7.6
2017-09-19T01:20:23.930Z,10.1
2017-09-19T01:21:26.230Z,8.3
2017-09-19T01:22:29.163Z,10.9
2017-09-19T01:23:34.862Z,7.6
2017-09-19T01:24:36.890Z,12.1
2017-09-19T01:25:39.591Z,10.1
2017-09-19T01:26:41.546Z,9.6
2017-09-19T01:27:44.711Z,9.2
2017-09-19T01:28:46.804Z,8.9
2017-09-19T01:29:49.391Z,8.6
2017-09-19T01:30:52.405Z,8.1
2017-09-19T01:31:57.009Z,11.4
2017-09-19T01:33:00.462Z,8.9
2017-09-19T01:34:02.467Z,10.7
2017-09-19T01:35:06.478Z,9.3
2017-09-19T01:36:08.414Z,9.1
2017-09-19T01:37:10.545Z,7.9
2017-09-19T01:38:14.008Z,7.8
2017-09-19T01:39:17.590Z,8.4
2017-09-19T01:40:19.613Z,9.2
2017-09-19T01:41:22.984Z,10.6
2017-09-19T01:42:27.199Z,12.6
2017-09-19T01:43:30.895Z,10.9
2017-09-19T01:44:32.329Z,8.9
2017-09-19T01:45:36.213Z,10.4
2017-09-19T01:46:39.713Z,10.2
2017-09-19T01:47:43.003Z,10.8
2017-09-19T01:48:47.502Z,9.2
2017-09-19T01:49:49.885Z,11.1
2017-09-19T01:50:52.438Z,10.7
2017-09-19T01:51:54.181Z,10.0
2017-09-19T01:52:57.890Z,9.8
2017-09-19T01:53:59.766Z,11.7
2017-09-19T01:55:02.225Z,11.5
2017-09-19T02:01:01.930Z,10.3
2017-09-19T02:02:05.289Z,10.2
2017-09-19T02:03:07.698Z,10.8
2017-09-19T02:04:10.073Z,13.0
2017-09-19T02:05:15.663Z,11.7
2017-09-19T02:06:19.983Z,12.3
2017-09-19T02:07:24.787Z,11.5
2017-09-19T02:08:27.391Z,10.9
2017-09-19T02:09:31.675Z,10.7
2017-09-19T02:10:33.334Z,11.9
2017-09-19T02:11:37.652Z,10.2
2017-09-19T02:12:40.392Z,12.1
2017-09-19T02:13:44.263Z,11.9
2017-09-19T02:14:49.128Z,10.5
2017-09-19T02:15:53.160Z,12.7
2017-09-19T02:16:57.567Z,12.6
2017-09-19T02:18:00.630Z,9.4
2017-09-19T02:19:03.259Z,9.4
2017-09-19T02:20:06.301Z,9.4
2017-09-19T02:21:07.958Z,9.9
2017-09-19T02:22:11.057Z,9.8
2017-09-19T02:23:12.612Z,12.7
2017-09-19T02:24:15.844Z,10.7
2017-09-19T02:25:18.796Z,10.1
2017-09-19T02:26:22.075Z,10.4
2017-09-19T02:27:24.650Z,12.6
2017-09-19T02:28:27.790Z,13.4
2017-09-19T02:29:32.057Z,20.3
2017-09-19T02:30:35.057Z,13.0
2017-09-19T02:31:36.744Z,13.0
2017-09-19T02:32:38.393Z,14.1
2017-09-19T02:33:43.627Z,11.2
2017-09-19T02:34:45.276Z,14.1
2017-09-19T02:35:48.557Z,13.3
2017-09-19T02:36:52.397Z,12.8
2017-09-19T02:37:54.047Z,11.7
2017-09-19T02:38:55.711Z,10.5
2017-09-19T02:39:58.638Z,11.3
2017-09-19T02:41:01.870Z,10.3
2017-09-19T02:42:05.057Z,11.3
2017-09-19T02:43:07.308Z,10.5
2017-09-19T02:44:09.836Z,11.0
2017-09-19T02:45:12.228Z,11.6
2017-09-19T02:46:16.142Z,14.4
2017-09-19T02:47:19.266Z,13.1
2017-09-19T02:48:21.707Z,14.0
2017-09-19T02:49:26.498Z,11.3
2017-09-19T02:50:28.644Z,10.8
2017-09-19T02:51:32.205Z,11.7
2017-09-19T02:52:36.184Z,12.6
2017-09-19T02:53:40.322Z,10.6
2017-09-19T02:54:45.237Z,9.9
2017-09-19T02:55:47.445Z,12.5
2017-09-19T02:56:50.384Z,13.0
2017-09-19T02:57:52.759Z,14.4
2017-09-19T02:58:55.879Z,12.6
2017-09-19T03:00:00.055Z,14.9
2017-09-19T03:01:02.558Z,12.3
2017-09-19T03:02:06.330Z,11.8
2017-09-19T03:03:09.490Z,15.6
2017-09-19T03:04:12.448Z,16.9
2017-09-19T03:05:15.576Z,17.6
2017-09-19T03:06:20.175Z,18.3
2017-09-19T03:07:23.644Z,15.8
2017-09-19T03:08:27.669Z,15.7
2017-09-19T03:09:29.323Z,18.9
2017-09-19T03:10:31.941Z,16.8
2017-09-19T03:11:34.777Z,22.7
2017-09-19T03:12:37.790Z,14.8
2017-09-19T03:13:40.924Z,13.7
2017-09-19T03:14:44.926Z,16.2
2017-09-19T03:15:47.089Z,14.9
2017-09-19T03:16:50.283Z,16.6
2017-09-19T03:17:53.341Z,16.6
2017-09-19T03:18:56.331Z,14.8
2017-09-19T03:19:59.692Z,15.7
2017-09-19T03:21:02.991Z,16.4
2017-09-19T03:22:06.909Z,16.0
2017-09-19T03:23:09.683Z,14.1
2017-09-19T03:24:14.094Z,16.8
2017-09-19T03:25:18.033Z,16.3
2017-09-19T03:26:21.342Z,16.1
2017-09-19T03:27:24.182Z,17.4
2017-09-19T03:28:28.181Z,19.6
2017-09-19T03:29:31.256Z,16.5
2017-09-19T03:30:33.837Z,20.8
2017-09-19T03:31:36.172Z,16.5
2017-09-19T03:32:40.215Z,15.8
2017-09-19T03:33:43.109Z,17.4
2017-09-19T03:34:48.804Z,13.7
2017-09-19T03:35:50.458Z,20.4
2017-09-19T03:36:54.480Z,17.9
2017-09-19T03:37:56.132Z,17.0
2017-09-19T03:38:59.255Z,18.5
2017-09-19T03:40:03.065Z,19.8
2017-09-19T03:41:04.548Z,19.5
2017-09-19T03:42:06.816Z,19.0
2017-09-19T03:43:09.883Z,19.4
2017-09-19T03:44:13.165Z,24.4
2017-09-19T03:45:17.898Z,19.2
2017-09-19T03:46:21.061Z,20.0
2017-09-19T03:47:24.350Z,20.1
2017-09-19T03:48:26.062Z,21.0
2017-09-19T03:49:32.184Z,21.8
2017-09-19T03:50:34.639Z,18.0
2017-09-19T03:51:36.346Z,18.6
2017-09-19T03:52:41.185Z,19.1
2017-09-19T03:53:44.261Z,20.4
2017-09-19T03:54:46.806Z,22.5
2017-09-19T03:55:50.061Z,19.7
2017-09-19T03:56:53.061Z,19.8
2017-09-19T03:57:53.956Z,18.7
2017-09-19T03:58:58.995Z,21.4
2017-09-19T04:00:04.125Z,23.0
2017-09-19T04:01:08.562Z,21.2
2017-09-19T04:02:10.571Z,21.2
2017-09-19T04:03:12.232Z,21.7
2017-09-19T04:04:14.956Z,20.5
2017-09-19T04:05:17.308Z,21.6
2017-09-19T04:06:20.478Z,20.5
2017-09-19T04:07:25.066Z,21.3
2017-09-19T04:08:27.115Z,19.9
2017-09-19T04:09:30.171Z,22.7
2017-09-19T04:10:34.829Z,21.7
2017-09-19T04:11:36.484Z,23.6
2017-09-19T04:12:40.656Z,26.2
2017-09-19T04:13:42.921Z,21.4
2017-09-19T04:14:47.073Z,23.3
2017-09-19T04:15:49.617Z,24.7
2017-09-19T04:16:52.167Z,22.0
2017-09-19T04:17:54.716Z,23.0
2017-09-19T04:18:58.865Z,24.2
2017-09-19T04:20:02.873Z,23.0
2017-09-19T04:21:06.456Z,22.3
2017-09-19T04:22:09.975Z,23.9
2017-09-19T04:23:13.604Z,21.1
2017-09-19T04:24:17.564Z,26.7
2017-09-19T04:25:19.876Z,29.2
2017-09-19T04:26:24.256Z,24.7
2017-09-19T04:27:29.371Z,28.2
2017-09-19T04:28:31.025Z,26.2
2017-09-19T04:29:34.202Z,27.7
2017-09-19T04:30:36.686Z,26.6
2017-09-19T04:31:39.655Z,25.4
2017-09-19T04:32:43.504Z,28.2
2017-09-19T04:33:47.313Z,31.0
2017-09-19T04:34:50.346Z,25.0
2017-09-19T04:35:54.065Z,30.0
2017-09-19T04:36:55.716Z,30.3
2017-09-19T04:37:58.133Z,28.1
2017-09-19T04:39:01.315Z,26.3
2017-09-19T04:40:03.983Z,27.6
2017-09-19T04:41:06.964Z,35.3
2017-09-19T04:42:10.224Z,29.9
2017-09-19T04:43:12.665Z,31.3
2017-09-19T04:44:17.566Z,28.6
2017-09-19T04:45:19.920Z,30.3
2017-09-19T04:46:22.147Z,28.2
2017-09-19T04:47:27.334Z,26.6
2017-09-19T04:48:29.865Z,28.6
2017-09-19T04:49:33.773Z,26.4
2017-09-19T04:50:36.275Z,28.2
2017-09-19T04:51:40.224Z,30.2
2017-09-19T04:52:44.066Z,34.4
2017-09-19T04:53:45.667Z,29.9
2017-09-19T04:54:48.831Z,32.6
2017-09-19T04:55:53.767Z,30.8
2017-09-19T04:56:57.248Z,29.9
2017-09-19T04:58:00.811Z,29.3
2017-09-19T04:59:04.665Z,47.7
2017-09-19T05:00:07.613Z,52.6
2017-09-19T05:01:09.822Z,54.3
2017-09-19T05:02:14.399Z,56.5
2017-09-19T05:03:16.686Z,53.3
2017-09-19T05:04:20.737Z,48.8
2017-09-19T05:05:24.968Z,53.0
2017-09-19T05:06:30.235Z,52.5
2017-09-19T05:07:32.972Z,49.7
2017-09-19T05:08:36.400Z,52.1
2017-09-19T05:09:39.336Z,51.7
2017-09-19T05:10:44.567Z,49.3
2017-09-19T05:11:48.641Z,46.4
2017-09-19T05:12:51.622Z,42.0
2017-09-19T05:13:54.367Z,45.9
2017-09-19T05:14:57.905Z,43.0
2017-09-19T05:16:03.643Z,41.4
2017-09-19T05:17:11.571Z,38.7
2017-09-19T05:18:21.659Z,43.7
2017-09-19T05:19:30.120Z,40.9
2017-09-19T05:20:33.691Z,42.1
2017-09-19T05:21:38.312Z,42.7
2017-09-19T05:22:40.854Z,45.9
2017-09-19T05:23:43.340Z,46.3
2017-09-19T05:24:46.269Z,45.1
2017-09-19T05:25:50.679Z,49.2
2017-09-19T05:26:53.819Z,48.5
2017-09-19T05:27:57.458Z,52.5
2017-09-19T05:29:00.251Z,54.8
2017-09-19T05:30:03.400Z,54.9
2017-09-19T05:31:05.066Z,55.3
2017-09-19T05:32:07.321Z,58.2
2017-09-19T05:33:09.685Z,53.5
2017-09-19T05:34:13.576Z,49.9
2017-09-19T05:35:15.322Z,53.9
2017-09-19T05:36:20.484Z,55.8
2017-09-19T05:37:22.991Z,54.6
2017-09-19T05:38:26.253Z,54.1
2017-09-19T05:39:31.336Z,57.6
2017-09-19T05:40:34.859Z,54.6
2017-09-19T05:41:38.706Z,57.9
2017-09-19T05:42:41.196Z,52.4
2017-09-19T05:43:44.204Z,57.6
2017-09-19T05:44:45.867Z,53.4
2017-09-19T05:45:50.567Z,57.0
2017-09-19T05:46:55.069Z,52.9
2017-09-19T05:47:58.216Z,57.4
2017-09-19T05:49:01.579Z,58.5
2017-09-19T05:50:03.233Z,56.9
2017-09-19T05:51:07.170Z,55.3
2017-09-19T05:52:11.123Z,58.9
2017-09-19T05:53:13.446Z,57.9
2017-09-19T05:54:15.905Z,49.1
2017-09-19T05:55:19.332Z,54.4
2017-09-19T06:01:51.551Z,45.0
2017-09-19T06:02:54.557Z,53.1
2017-09-19T06:03:57.572Z,50.9
2017-09-19T06:05:01.423Z,52.7
2017-09-19T06:06:06.262Z,57.4
2017-09-19T06:07:08.645Z,57.9
2017-09-19T06:08:11.116Z,50.1
2017-09-19T06:09:14.166Z,55.9
2017-09-19T06:10:16.416Z,50.2
2017-09-19T06:11:18.693Z,48.5
2017-09-19T06:12:21.622Z,54.0
2017-09-19T06:13:24.976Z,54.5
2017-09-19T06:14:29.087Z,49.0
2017-09-19T06:15:30.751Z,46.3
2017-09-19T06:16:35.296Z,53.3
2017-09-19T06:17:37.603Z,48.1
2017-09-19T06:18:40.008Z,51.7
2017-09-19T06:19:44.676Z,46.2
2017-09-19T06:20:48.552Z,48.1
2017-09-19T06:21:53.130Z,45.2
2017-09-19T06:22:56.690Z,44.7
2017-09-19T06:24:00.528Z,41.5
2017-09-19T06:25:03.106Z,41.1
2017-09-19T06:26:06.999Z,44.2
2017-09-19T06:27:12.500Z,41.9
2017-09-19T06:28:14.629Z,41.6
2017-09-19T06:29:16.943Z,37.4
2017-09-19T06:30:19.580Z,37.7
2017-09-19T06:31:22.148Z,36.5
2017-09-19T06:32:26.141Z,34.9
2017-09-19T06:33:27.802Z,38.0
2017-09-19T06:34:32.567Z,36.9
2017-09-19T06:35:35.709Z,35.8
2017-09-19T06:36:40.522Z,36.4
2017-09-19T06:37:42.811Z,39.4
2017-09-19T06:38:45.118Z,35.3
2017-09-19T06:39:49.739Z,37.1
2017-09-19T06:40:51.404Z,34.1
2017-09-19T06:41:54.936Z,35.8
2017-09-19T06:42:58.973Z,34.5
2017-09-19T06:44:02.215Z,34.6
2017-09-19T06:45:05.250Z,34.5
2017-09-19T06:46:07.641Z,34.2
2017-09-19T06:47:10.746Z,24.6
2017-09-19T06:48:14.780Z,28.3
2017-09-19T06:49:17.859Z,26.9
2017-09-19T06:50:20.749Z,29.8
2017-09-19T06:51:23.261Z,28.2
2017-09-19T06:52:26.086Z,35.0
2017-09-19T06:53:28.443Z,29.7
2017-09-19T06:54:30.895Z,29.9
2017-09-19T06:55:34.066Z,26.0
2017-09-19T06:56:38.504Z,26.6
2017-09-19T06:57:40.415Z,30.9
2017-09-19T06:58:43.585Z,27.6
2017-09-19T06:59:47.338Z,27.9
2017-09-19T07:00:50.642Z,29.9
2017-09-19T07:01:53.326Z,22.7
2017-09-19T07:02:56.736Z,23.4
2017-09-19T07:04:00.671Z,21.7
2017-09-19T07:05:03.326Z,22.0
2017-09-19T07:06:06.183Z,21.2
2017-09-19T07:07:09.179Z,18.8
2017-09-19T07:08:13.346Z,10.1
2017-09-19T07:09:15.600Z,9.7
2017-09-19T07:10:17.950Z,11.6
2017-09-19T07:11:22.067Z,10.5
2017-09-19T07:12:25.092Z,8.7
2017-09-19T07:13:28.191Z,8.7
2017-09-19T07:14:30.509Z,7.6
2017-09-19T07:15:33.008Z,8.0
2017-09-19T07:16:35.177Z,8.3
2017-09-19T07:17:39.095Z,7.8
2017-09-19T07:18:42.804Z,8.1
2017-09-19T07:19:46.087Z,7.5
2017-09-19T07:20:50.620Z,9.5
2017-09-19T07:21:54.012Z,10.7
2017-09-19T07:22:56.445Z,7.8
2017-09-19T07:24:00.096Z,7.7
2017-09-19T07:25:03.477Z,8.5
2017-09-19T07:26:07.537Z,6.0
2017-09-19T07:27:09.794Z,8.1
2017-09-19T07:28:12.915Z,7.8
2017-09-19T07:29:15.055Z,7.0
2017-09-19T07:30:19.070Z,7.4
2017-09-19T07:31:21.339Z,7.8
2017-09-19T07:32:23.599Z,9.7
2017-09-19T07:33:27.526Z,7.8
2017-09-19T07:34:31.274Z,6.6
2017-09-19T07:35:33.624Z,8.3
2017-09-19T07:36:36.120Z,6.5
2017-09-19T07:37:39.016Z,7.3
2017-09-19T07:38:39.998Z,7.0
2017-09-19T07:39:42.494Z,8.0
2017-09-19T07:40:46.270Z,6.5
2017-09-19T07:41:47.935Z,7.4
2017-09-19T07:42:53.131Z,8.0
2017-09-19T07:43:55.302Z,6.4
2017-09-19T07:44:58.369Z,7.3
2017-09-19T07:46:03.017Z,9.4
2017-09-19T07:47:06.563Z,8.7
2017-09-19T07:48:10.564Z,5.6
2017-09-19T07:49:13.944Z,8.2
2017-09-19T07:50:15.607Z,7.3
2017-09-19T07:51:17.910Z,8.2
2017-09-19T07:52:21.649Z,6.9
2017-09-19T07:53:24.910Z,10.3
2017-09-19T07:54:27.139Z,8.9
2017-09-19T07:55:28.841Z,9.9
2017-09-19T07:56:30.606Z,9.3
2017-09-19T07:57:32.760Z,12.6
2017-09-19T07:58:37.131Z,11.7
2017-09-19T07:59:39.544Z,11.6
2017-09-19T08:00:41.203Z,13.5
2017-09-19T08:01:44.813Z,14.6
2017-09-19T08:02:48.329Z,15.6
2017-09-19T08:03:52.618Z,15.0
2017-09-19T08:04:54.535Z,16.9
2017-09-19T08:05:56.959Z,14.2
2017-09-19T08:06:59.565Z,14.7
2017-09-19T08:08:03.649Z,16.3
2017-09-19T08:09:05.319Z,15.5
2017-09-19T08:10:07.857Z,18.4
2017-09-19T08:11:09.549Z,17.4
2017-09-19T08:12:12.644Z,17.5
2017-09-19T08:13:16.653Z,15.3
2017-09-19T08:14:21.019Z,15.5
2017-09-19T08:15:25.570Z,17.1
2017-09-19T08:16:28.502Z,17.1
2017-09-19T08:17:32.622Z,15.5
2017-09-19T08:18:34.304Z,15.3
2017-09-19T08:19:38.484Z,18.1
2017-09-19T08:20:40.183Z,16.6
2017-09-19T08:21:42.761Z,16.9
2017-09-19T08:22:46.270Z,17.7
2017-09-19T08:23:49.147Z,15.6
2017-09-19T08:24:53.018Z,18.1
2017-09-19T08:25:54.823Z,17.4
2017-09-19T08:26:58.680Z,17.5
2017-09-19T08:28:02.172Z,17.4
2017-09-19T08:29:05.188Z,16.4
2017-09-19T08:30:07.614Z,19.1
2017-09-19T08:31:09.318Z,19.7
2017-09-19T08:32:12.372Z,18.6
2017-09-19T08:33:15.339Z,17.1
2017-09-19T08:34:17.864Z,22.3
2017-09-19T08:35:22.335Z,19.0
2017-09-19T08:36:26.107Z,19.7
2017-09-19T08:37:29.309Z,21.5
2017-09-19T08:38:32.073Z,19.8
2017-09-19T08:39:35.021Z,16.7
2017-09-19T08:40:37.628Z,15.4
2017-09-19T08:41:40.191Z,19.1
2017-09-19T08:42:43.281Z,21.9
2017-09-19T08:43:46.319Z,18.6
2017-09-19T08:44:49.884Z,18.4
2017-09-19T08:45:52.440Z,18.2
2017-09-19T08:46:57.115Z,19.4
2017-09-19T08:47:58.775Z,18.9
2017-09-19T08:49:00.433Z,20.0
2017-09-19T08:50:03.216Z,20.1
2017-09-19T08:51:08.404Z,17.0
2017-09-19T08:52:12.587Z,15.6
2017-09-19T08:53:18.070Z,18.9
2017-09-19T08:54:23.592Z,17.5
2017-09-19T08:55:26.151Z,19.2
2017-09-19T08:56:30.517Z,18.2
2017-09-19T08:57:34.021Z,18.2
2017-09-19T08:58:36.638Z,17.7
2017-09-19T08:59:39.222Z,17.5
2017-09-19T09:00:42.471Z,18.5
2017-09-19T09:01:48.621Z,16.1
2017-09-19T09:02:52.971Z,15.5
2017-09-19T09:03:55.249Z,16.8
2017-09-19T09:04:59.697Z,13.7
2017-09-19T09:06:07.736Z,15.8
2017-09-19T09:07:12.028Z,14.8
2017-09-19T09:08:12.776Z,14.5
2017-09-19T09:09:15.203Z,17.2
2017-09-19T09:10:17.659Z,14.5
2017-09-19T09:11:21.007Z,17.1
2017-09-19T09:12:23.293Z,13.6
2017-09-19T09:13:27.594Z,14.9
2017-09-19T09:14:31.279Z,15.8
2017-09-19T09:15:33.407Z,13.8
2017-09-19T09:16:35.792Z,14.1
2017-09-19T09:17:38.817Z,16.8
2017-09-19T09:18:41.259Z,16.7
2017-09-19T09:19:43.520Z,16.1
2017-09-19T09:20:47.814Z,15.9
2017-09-19T09:21:51.486Z,14.3
2017-09-19T09:22:54.784Z,15.9
2017-09-19T09:23:58.873Z,14.5
2017-09-19T09:25:02.000Z,15.4
2017-09-19T09:26:05.573Z,17.6
2017-09-19T09:27:07.773Z,15.4
2017-09-19T09:28:10.110Z,14.6
2017-09-19T09:29:14.533Z,15.0
2017-09-19T09:30:17.221Z,14.8
2017-09-19T09:31:20.713Z,17.7
2017-09-19T09:32:24.667Z,13.0
2017-09-19T09:33:27.333Z,12.4
2017-09-19T09:34:29.570Z,14.2
2017-09-19T09:35:32.331Z,14.8
2017-09-19T09:36:35.244Z,13.8
2017-09-19T09:37:39.104Z,11.0
2017-09-19T09:38:40.745Z,12.1
2017-09-19T09:39:42.475Z,10.4
2017-09-19T09:40:46.573Z,12.5
2017-09-19T09:41:48.237Z,11.5
2017-09-19T09:42:53.312Z,11.6
2017-09-19T09:43:55.493Z,11.5
2017-09-19T09:44:57.708Z,10.4
2017-09-19T09:46:01.269Z,10.8
2017-09-19T09:47:04.447Z,10.6
2017-09-19T09:48:06.182Z,11.4
2017-09-19T09:49:09.596Z,11.5
2017-09-19T09:50:11.381Z,11.6
2017-09-19T09:51:14.530Z,11.4
2017-09-19T09:52:16.163Z,9.7
2017-09-19T09:53:19.532Z,10.6
2017-09-19T09:54:21.955Z,10.3
2017-09-19T09:55:25.757Z,11.4
2017-09-19T10:01:32.894Z,9.6
2017-09-19T10:02:39.826Z,8.9
2017-09-19T10:03:41.978Z,9.4
2017-09-19T10:04:44.867Z,8.6
2017-09-19T10:05:49.539Z,8.4
2017-09-19T10:06:53.445Z,9.3
2017-09-19T10:07:55.144Z,10.8
2017-09-19T10:08:59.261Z,8.3
2017-09-19T10:10:01.761Z,11.0
2017-09-19T10:11:05.236Z,8.2
2017-09-19T10:12:07.447Z,9.4
2017-09-19T10:13:12.195Z,8.8
2017-09-19T10:14:13.573Z,7.7
2017-09-19T10:15:16.431Z,9.0
2017-09-19T10:16:19.404Z,6.5
2017-09-19T10:17:25.009Z,8.8
2017-09-19T10:18:27.695Z,7.7
2017-09-19T10:19:31.848Z,8.3
2017-09-19T10:20:36.745Z,7.0
2017-09-19T10:21:40.703Z,7.1
2017-09-19T10:22:42.284Z,9.2
2017-09-19T10:23:46.333Z,8.3
2017-09-19T10:24:49.346Z,8.6
2017-09-19T10:25:53.321Z,8.5
2017-09-19T10:26:56.475Z,9.8
2017-09-19T10:27:58.166Z,9.2
2017-09-19T10:29:00.704Z,6.5
2017-09-19T10:30:02.620Z,6.1
2017-09-19T10:31:04.289Z,6.9
2017-09-19T10:32:08.198Z,5.3
2017-09-19T10:33:09.906Z,5.2
2017-09-19T10:34:15.795Z,6.4
2017-09-19T10:35:17.480Z,6.5
2017-09-19T10:36:19.901Z,5.3
2017-09-19T10:37:23.450Z,6.8
2017-09-19T10:38:25.297Z,7.1
2017-09-19T10:39:27.767Z,4.8
2017-09-19T10:40:29.477Z,6.6
2017-09-19T10:41:32.947Z,6.7
2017-09-19T10:42:36.978Z,4.5
2017-09-19T10:43:39.196Z,5.0
2017-09-19T10:44:42.773Z,6.8
2017-09-19T10:45:46.880Z,4.9
2017-09-19T10:46:48.588Z,4.2
2017-09-19T10:47:50.259Z,4.8
2017-09-19T10:48:52.770Z,3.8
2017-09-19T10:49:55.976Z,3.3
2017-09-19T10:50:57.666Z,6.1
2017-09-19T10:51:59.335Z,5.0
2017-09-19T10:53:02.930Z,3.6
2017-09-19T10:54:04.594Z,6.1
2017-09-19T10:55:08.279Z,4.3
2017-09-19T10:56:09.956Z,5.1
2017-09-19T10:57:12.293Z,3.9
2017-09-19T10:58:13.978Z,4.6
2017-09-19T10:59:16.261Z,3.1
2017-09-19T11:00:19.704Z,3.1
2017-09-19T11:01:21.413Z,3.2
2017-09-19T11:02:24.947Z,5.0
2017-09-19T11:03:28.218Z,3.5
2017-09-19T11:04:31.376Z,3.8
2017-09-19T11:05:35.246Z,3.8
2017-09-19T11:06:38.319Z,2.9
2017-09-19T11:07:40.677Z,2.5
2017-09-19T11:08:43.276Z,3.3
2017-09-19T11:09:49.939Z,3.0
2017-09-19T11:10:52.296Z,2.9
2017-09-19T11:11:58.172Z,3.0
2017-09-19T11:13:01.407Z,2.8
2017-09-19T11:14:04.764Z,2.8
2017-09-19T11:15:08.396Z,2.7
2017-09-19T11:16:10.060Z,2.4
2017-09-19T11:17:14.072Z,3.2
2017-09-19T11:18:17.327Z,2.5
2017-09-19T11:19:19.650Z,2.6
2017-09-19T11:20:21.802Z,2.4
2017-09-19T11:21:26.210Z,2.9
2017-09-19T11:22:28.262Z,4.3
2017-09-19T11:23:31.430Z,3.0
2017-09-19T11:24:35.709Z,3.3
2017-09-19T11:25:39.793Z,2.6
2017-09-19T11:26:43.335Z,3.0
2017-09-19T11:27:45.870Z,4.0
2017-09-19T11:28:51.295Z,3.5
2017-09-19T11:29:52.999Z,4.6
2017-09-19T11:30:56.431Z,2.6
2017-09-19T11:31:58.944Z,2.8
2017-09-19T11:33:01.968Z,3.1
2017-09-19T11:34:06.048Z,2.4
2017-09-19T11:35:08.321Z,2.3
2017-09-19T11:36:12.331Z,3.2
2017-09-19T11:37:15.420Z,2.7
2017-09-19T11:38:17.993Z,2.4
2017-09-19T11:39:20.260Z,2.5
2017-09-19T11:40:25.846Z,3.5
2017-09-19T11:41:29.262Z,2.7
2017-09-19T11:42:35.014Z,2.2
2017-09-19T11:43:40.517Z,2.0
2017-09-19T11:44:45.645Z,2.0
2017-09-19T11:45:48.261Z,1.8
2017-09-19T11:46:50.772Z,3.2
2017-09-19T11:47:53.770Z,2.0
2017-09-19T11:48:56.814Z,3.6
2017-09-19T11:50:00.368Z,2.1
2017-09-19T11:51:05.377Z,1.8
2017-09-19T11:52:09.340Z,2.1
2017-09-19T11:53:12.716Z,2.4
2017-09-19T11:54:14.305Z,2.3
2017-09-19T11:55:19.126Z,2.9
2017-09-19T11:56:21.380Z,3.3
2017-09-19T11:57:24.827Z,2.8
2017-09-19T11:58:27.893Z,3.0
2017-09-19T11:59:32.925Z,2.9
2017-09-19T12:00:37.220Z,3.1
2017-09-19T12:01:39.497Z,4.0
2017-09-19T12:02:41.222Z,4.1
2017-09-19T12:03:43.670Z,4.2
2017-09-19T12:04:48.789Z,3.9
2017-09-19T12:05:51.512Z,3.1
2017-09-19T12:06:55.752Z,4.4
2017-09-19T12:07:58.348Z,3.5
2017-09-19T12:09:00.586Z,3.8
2017-09-19T12:10:02.910Z,4.3
2017-09-19T12:11:06.218Z,4.4
2017-09-19T12:12:07.995Z,3.2
2017-09-19T12:13:11.222Z,4.2
2017-09-19T12:14:13.307Z,5.8
2017-09-19T12:15:15.097Z,4.5
2017-09-19T12:16:19.340Z,4.6
2017-09-19T12:17:21.820Z,4.8
2017-09-19T12:18:24.111Z,3.2
2017-09-19T12:19:27.966Z,4.7
2017-09-19T12:20:30.443Z,3.8
2017-09-19T12:21:32.888Z,5.2
2017-09-19T12:22:36.228Z,6.6
2017-09-19T12:23:38.759Z,5.4
2017-09-19T12:24:41.627Z,3.5
2017-09-19T12:25:44.072Z,3.8
2017-09-19T12:26:47.019Z,4.9
2017-09-19T12:27:49.568Z,4.2
2017-09-19T12:28:52.596Z,2.8
2017-09-19T12:29:55.149Z,3.7
2017-09-19T12:30:58.082Z,3.5
2017-09-19T12:31:59.753Z,3.4
2017-09-19T12:33:01.451Z,3.1
2017-09-19T12:34:06.337Z,3.6
2017-09-19T12:35:09.793Z,2.8
2017-09-19T12:36:13.224Z,3.9
2017-09-19T12:37:17.284Z,3.1
2017-09-19T12:38:21.125Z,3.7
2017-09-19T12:39:23.504Z,4.1
2017-09-19T12:40:26.728Z,3.2
2017-09-19T12:41:28.465Z,2.9
2017-09-19T12:42:32.435Z,6.1
2017-09-19T12:43:35.856Z,2.7
2017-09-19T12:44:38.382Z,4.4
2017-09-19T12:45:42.625Z,4.3
2017-09-19T12:46:46.007Z,3.7
2017-09-19T12:47:48.451Z,5.6
2017-09-19T12:48:50.129Z,4.9
2017-09-19T12:49:52.953Z,5.0
2017-09-19T12:50:55.502Z,5.9
2017-09-19T12:51:59.779Z,6.1
2017-09-19T12:53:01.470Z,4.6
2017-09-19T12:54:04.962Z,4.8
2017-09-19T12:55:06.675Z,5.2
2017-09-19T12:56:10.066Z,4.6
2017-09-19T12:57:13.543Z,4.5
2017-09-19T12:58:16.473Z,4.5
2017-09-19T12:59:19.929Z,6.1
2017-09-19T13:00:22.332Z,5.9
2017-09-19T13:01:24.738Z,5.9
2017-09-19T13:02:27.405Z,6.4
2017-09-19T13:03:30.789Z,5.1
2017-09-19T13:04:34.433Z,5.3
2017-09-19T13:05:38.236Z,4.3
2017-09-19T13:06:41.386Z,5.1
2017-09-19T13:07:43.735Z,5.4
2017-09-19T13:08:46.080Z,6.5
2017-09-19T13:09:48.779Z,4.1
2017-09-19T13:10:51.421Z,5.0
2017-09-19T13:11:53.735Z,4.7
2017-09-19T13:12:55.720Z,5.4
2017-09-19T13:13:58.353Z,5.0
2017-09-19T13:15:00.924Z,4.6
2017-09-19T13:16:02.597Z,4.6
2017-09-19T13:17:07.592Z,4.7
2017-09-19T13:18:10.145Z,6.1
2017-09-19T13:19:12.802Z,4.0
2017-09-19T13:20:15.891Z,4.9
2017-09-19T13:21:18.872Z,4.3
2017-09-19T13:22:22.259Z,4.9
2017-09-19T13:24:39.375Z,4.0
2017-09-19T13:25:45.845Z,4.4
2017-09-19T13:26:48.278Z,2.8
2017-09-19T13:27:50.170Z,3.1
2017-09-19T13:28:55.736Z,4.8
2017-09-19T13:29:57.038Z,3.4
2017-09-19T13:31:01.363Z,3.4
2017-09-19T13:32:06.438Z,3.1
2017-09-19T13:33:09.488Z,3.5
2017-09-19T13:34:12.477Z,4.3
2017-09-19T13:35:14.169Z,4.2
2017-09-19T13:36:17.346Z,3.3
2017-09-19T13:37:20.451Z,3.1
2017-09-19T13:38:23.792Z,3.9
2017-09-19T13:39:26.391Z,4.3
2017-09-19T13:40:28.831Z,3.2
2017-09-19T13:41:31.028Z,3.5
2017-09-19T13:42:33.924Z,3.0
2017-09-19T13:43:36.568Z,6.3
2017-09-19T13:44:39.802Z,3.4
2017-09-19T13:45:42.358Z,4.0
2017-09-19T13:46:44.544Z,5.4
2017-09-19T13:47:46.920Z,3.8
2017-09-19T13:48:51.053Z,3.2
2017-09-19T13:49:53.392Z,4.7
2017-09-19T13:50:55.064Z,7.2
2017-09-19T13:51:57.105Z,3.7
2017-09-19T13:53:01.251Z,3.8
2017-09-19T13:54:03.803Z,3.6
2017-09-19T13:55:07.316Z,3.9
2017-09-19T14:01:04.236Z,2.9
2017-09-19T14:02:06.582Z,3.6
2017-09-19T14:03:09.025Z,4.4
2017-09-19T14:04:12.685Z,3.5
2017-09-19T14:05:14.117Z,4.6
2017-09-19T14:06:17.113Z,3.4
2017-09-19T14:07:20.204Z,4.5
2017-09-19T14:08:22.559Z,4.2
2017-09-19T14:09:24.749Z,4.6
2017-09-19T14:10:29.025Z,4.4
2017-09-19T14:11:32.210Z,5.0
2017-09-19T14:12:37.210Z,4.0
2017-09-19T14:14:04.679Z,3.8
2017-09-19T14:15:14.287Z,4.0
2017-09-19T14:16:37.670Z,4.4
2017-09-19T14:17:42.934Z,3.7
2017-09-19T14:18:46.311Z,5.1
2017-09-19T14:19:51.179Z,5.0
2017-09-19T14:20:53.837Z,4.6
2017-09-19T14:21:56.195Z,5.4
2017-09-19T14:22:59.715Z,5.6
2017-09-19T14:24:02.670Z,5.1
2017-09-19T14:25:05.588Z,4.8
2017-09-19T14:26:08.672Z,9.0
2017-09-19T14:27:10.280Z,5.7
2017-09-19T14:28:14.671Z,7.2
2017-09-19T14:29:17.275Z,6.2
2017-09-19T14:30:20.662Z,7.3
2017-09-19T14:31:23.883Z,4.8
2017-09-19T14:32:27.215Z,8.8
2017-09-19T14:33:29.677Z,6.5
2017-09-19T14:34:32.872Z,7.9
2017-09-19T14:35:36.184Z,5.2
2017-09-19T14:36:37.468Z,50.7